Time;durP1;ratioP1;P1;durP2;ratioP2;P2;SDS_P1;SDS_P2;PMS_P1;PMS_P2;Temp;Humidity;BMP_temperature;BMP_pressure;BME280_temperature;BME280_humidity;BME280_pressure;Samples;Min_cycle;Max_cycle;Signal;HPM_P1;HPM_P2
2022/05/09 00:01:18;;;;;;;;;;;15.10;78.50;;;;;;5034046;28;19939;-90
2022/05/09 00:03:45;;;;;;;;;;;15.10;78.70;;;;;;5034034;28;20347;-90
2022/05/09 00:06:11;;;;;;;;;;;15.20;78.30;;;;;;5033911;28;20455;-90
2022/05/09 00:08:37;;;;;;;;;;;15.20;77.50;;;;;;5033737;28;19995;-90
2022/05/09 00:11:03;;;;;;;;;;;15.30;76.70;;;;;;5033722;28;19975;-90
2022/05/09 00:13:28;;;;;;;;;;;15.40;76.10;;;;;;5034029;28;20008;-90
2022/05/09 00:15:54;;;;;;;;;;;15.60;74.60;;;;;;5033705;28;20008;-90
2022/05/09 00:18:20;;;;;;;;;;;15.70;74.10;;;;;;5033666;28;19993;-90
2022/05/09 00:20:46;;;;;;;;;;;15.70;74.10;;;;;;5033882;28;19926;-90
2022/05/09 00:23:12;;;;;;;;;;;15.80;73.40;;;;;;5033527;28;20032;-90
2022/05/09 00:25:38;;;;;;;;;;;15.80;73.50;;;;;;5033947;28;20034;-90
2022/05/09 00:28:03;;;;;;;;;;;15.80;73.40;;;;;;5033814;28;20302;-90
2022/05/09 00:30:29;;;;;;;;;;;15.80;72.80;;;;;;5033390;28;20352;-90
2022/05/09 00:32:55;;;;;;;;;;;15.80;73.90;;;;;;5039960;28;19936;-90
2022/05/09 00:35:21;;;;;;;;;;;15.80;73.20;;;;;;5053314;28;19933;-90
2022/05/09 00:37:46;;;;;;;;;;;15.80;71.60;;;;;;5053638;28;20294;-90
2022/05/09 00:40:13;;;;;;;;;;;15.80;73.90;;;;;;5053265;28;20259;-90
2022/05/09 00:42:43;;;;;;;;;;;15.80;73.60;;;;;;5053220;28;19920;-90
2022/05/09 00:45:09;;;;;;;;;;;15.70;73.90;;;;;;5053357;28;19927;-90
2022/05/09 00:47:35;;;;;;;;;;;15.60;75.30;;;;;;5053246;28;19939;-90
2022/05/09 00:50:02;;;;;;;;;;;15.50;76.80;;;;;;5077066;22;20443;-90
2022/05/09 00:52:28;;;;;;;;;;;15.40;76.00;;;;;;5073180;28;19987;-90
2022/05/09 00:55:06;;;;;;;;;;;15.40;76.20;;;;;;5073226;28;20412;-90
2022/05/09 00:57:43;;;;;;;;;;;15.40;77.70;;;;;;5053079;28;19943;-90
2022/05/09 01:00:14;;;;;;;;;;;15.30;77.20;;;;;;5053013;28;20279;-90
2022/05/09 01:02:41;;;;;;;;;;;15.20;76.60;;;;;;5053093;28;19937;-90
2022/05/09 01:05:07;;;;;;;;;;;15.30;77.90;;;;;;5053042;28;19938;-90
2022/05/09 01:07:32;;;;;;;;;;;15.30;78.40;;;;;;5053042;28;19948;-90
2022/05/09 01:09:58;;;;;;;;;;;15.40;77.50;;;;;;5053217;28;19965;-90
2022/05/09 01:12:32;;;;;;;;;;;15.40;76.90;;;;;;5052970;28;20084;-91
2022/05/09 01:15:03;;;;;;;;;;;15.40;76.30;;;;;;5052976;28;19941;-90
2022/05/09 01:17:29;;;;;;;;;;;15.40;77.60;;;;;;5052933;28;20472;-90
2022/05/09 01:19:55;;;;;;;;;;;15.30;77.50;;;;;;5052980;28;19933;-90
2022/05/09 01:22:26;;;;;;;;;;;15.30;78.90;;;;;;5056907;28;20039;-90
2022/05/09 01:24:52;;;;;;;;;;;15.30;79.40;;;;;;5056869;28;19948;-90
2022/05/09 01:27:18;;;;;;;;;;;15.20;79.40;;;;;;5075518;28;19927;-90
2022/05/09 01:29:43;;;;;;;;;;;15.10;77.70;;;;;;5076658;28;19915;-90
2022/05/09 01:32:10;;;;;;;;;;;15.10;76.90;;;;;;5075703;28;19925;-90
2022/05/09 01:34:37;;;;;;;;;;;15.10;75.70;;;;;;5076879;28;20068;-90
2022/05/09 01:37:05;;;;;;;;;;;15.10;76.90;;;;;;5076653;28;19934;-90
2022/05/09 01:39:32;;;;;;;;;;;15.10;77.40;;;;;;5076575;28;20287;-90
2022/05/09 01:42:02;;;;;;;;;;;15.10;78.10;;;;;;5076570;28;19950;-90
2022/05/09 01:44:28;;;;;;;;;;;15.00;78.90;;;;;;5076480;28;20396;-90
2022/05/09 01:49:39;;;;;;;;;;;15.00;78.10;;;;;;5056160;28;19996;-90
2022/05/09 01:52:06;;;;;;;;;;;15.00;79.40;;;;;;5056583;28;20029;-90
2022/05/09 01:54:32;;;;;;;;;;;15.00;80.20;;;;;;5056166;28;19924;-90
2022/05/09 01:56:57;;;;;;;;;;;15.10;80.60;;;;;;5057480;28;20002;-90
2022/05/09 01:59:23;;;;;;;;;;;15.00;80.30;;;;;;5074941;28;20023;-90
2022/05/09 02:02:00;;;;;;;;;;;15.00;80.00;;;;;;5076187;28;20012;-90
2022/05/09 02:04:26;;;;;;;;;;;14.90;81.10;;;;;;5076128;28;19928;-90
2022/05/09 02:06:52;;;;;;;;;;;14.90;81.90;;;;;;5076026;28;20012;-90
2022/05/09 02:09:18;;;;;;;;;;;14.90;81.40;;;;;;5075708;28;19930;-90
2022/05/09 02:11:43;;;;;;;;;;;14.90;77.80;;;;;;5075716;28;19946;-90
2022/05/09 02:14:09;;;;;;;;;;;14.90;77.00;;;;;;5075926;28;19921;-90
2022/05/09 02:16:35;;;;;;;;;;;14.90;76.40;;;;;;5075910;28;20324;-90
2022/05/09 02:19:00;;;;;;;;;;;14.90;76.60;;;;;;5075859;28;20380;-90
2022/05/09 02:21:26;;;;;;;;;;;15.00;76.40;;;;;;5075765;28;19966;-90
2022/05/09 02:23:52;;;;;;;;;;;15.00;78.40;;;;;;5075814;28;19938;-90
2022/05/09 02:26:17;;;;;;;;;;;15.00;76.70;;;;;;5075702;28;19922;-90
2022/05/09 02:28:43;;;;;;;;;;;15.10;76.70;;;;;;5075662;28;19941;-90
2022/05/09 02:31:08;;;;;;;;;;;15.20;77.40;;;;;;5075327;28;20021;-90
2022/05/09 02:33:34;;;;;;;;;;;15.10;75.90;;;;;;5074606;28;19964;-89
2022/05/09 02:36:00;;;;;;;;;;;15.20;76.60;;;;;;5075606;28;19924;-90
2022/05/09 02:38:28;;;;;;;;;;;15.10;76.90;;;;;;5075530;28;20357;-90
2022/05/09 02:40:54;;;;;;;;;;;15.20;76.30;;;;;;5075254;28;19946;-90
2022/05/09 02:43:19;;;;;;;;;;;15.20;78.10;;;;;;5075525;28;19942;-90
2022/05/09 02:45:45;;;;;;;;;;;15.20;78.10;;;;;;5075369;28;19938;-90
2022/05/09 02:48:10;;;;;;;;;;;15.10;79.40;;;;;;5075124;28;19934;-90
2022/05/09 02:50:36;;;;;;;;;;;15.10;77.80;;;;;;5075161;28;19955;-90
2022/05/09 02:53:03;;;;;;;;;;;15.00;77.20;;;;;;5075180;28;19964;-90
2022/05/09 02:55:31;;;;;;;;;;;15.00;76.40;;;;;;5075186;28;20354;-90
2022/05/09 02:57:57;;;;;;;;;;;15.00;75.80;;;;;;5075297;28;20020;-90
2022/05/09 03:00:24;;;;;;;;;;;15.00;75.60;;;;;;5075143;28;19965;-90
2022/05/09 03:05:35;;;;;;;;;;;14.90;80.60;;;;;;5075339;28;20139;-90
2022/05/09 03:08:01;;;;;;;;;;;14.70;81.20;;;;;;5074995;28;19951;-90
2022/05/09 03:10:28;;;;;;;;;;;14.50;81.80;;;;;;5074756;28;20425;-90
2022/05/09 03:13:00;;;;;;;;;;;14.40;82.20;;;;;;5075117;28;19931;-90
2022/05/09 03:15:26;;;;;;;;;;;14.40;82.00;;;;;;5074754;28;20397;-90
2022/05/09 03:17:52;;;;;;;;;;;14.40;81.70;;;;;;5074990;28;19998;-90
2022/05/09 03:20:17;;;;;;;;;;;14.30;81.20;;;;;;5074816;28;20313;-90
2022/05/09 03:22:43;;;;;;;;;;;14.30;81.80;;;;;;5074669;28;19980;-90
2022/05/09 03:25:09;;;;;;;;;;;14.30;82.80;;;;;;5074705;28;19978;-90
2022/05/09 03:27:34;;;;;;;;;;;14.30;81.60;;;;;;5074594;28;19935;-90
2022/05/09 03:30:00;;;;;;;;;;;14.30;81.00;;;;;;5074461;28;19963;-90
2022/05/09 03:32:25;;;;;;;;;;;14.30;81.20;;;;;;5074363;28;19952;-90
2022/05/09 03:34:51;;;;;;;;;;;14.30;81.90;;;;;;5074386;28;19923;-90
2022/05/09 03:37:16;;;;;;;;;;;14.20;82.20;;;;;;5074756;28;19987;-90
2022/05/09 03:39:42;;;;;;;;;;;14.20;82.50;;;;;;5074111;28;20397;-90
2022/05/09 03:42:07;;;;;;;;;;;13.90;83.80;;;;;;5074282;28;19940;-90
2022/05/09 03:44:33;;;;;;;;;;;13.90;84.20;;;;;;5073896;28;19960;-90
2022/05/09 03:46:58;;;;;;;;;;;13.80;83.60;;;;;;5074198;28;19935;-90
2022/05/09 03:49:24;;;;;;;;;;;13.80;83.40;;;;;;5073589;28;19973;-90
2022/05/09 03:51:50;;;;;;;;;;;13.80;83.20;;;;;;5073698;28;20494;-90
2022/05/09 03:54:16;;;;;;;;;;;13.80;83.40;;;;;;5072841;28;20402;-90
2022/05/09 03:56:41;;;;;;;;;;;13.80;82.50;;;;;;5073826;28;20297;-89
2022/05/09 03:59:08;;;;;;;;;;;13.80;82.10;;;;;;5072561;28;20313;-90
2022/05/09 04:01:34;;;;;;;;;;;13.80;82.10;;;;;;5074146;28;19982;-90
2022/05/09 04:04:00;;;;;;;;;;;13.90;81.10;;;;;;5073828;28;19957;-90
2022/05/09 04:06:25;;;;;;;;;;;14.10;81.70;;;;;;5073596;28;20463;-90
2022/05/09 04:08:51;;;;;;;;;;;14.10;82.60;;;;;;5073108;28;19941;-90
2022/05/09 04:11:16;;;;;;;;;;;14.10;82.10;;;;;;5073675;28;19956;-90
2022/05/09 04:13:42;;;;;;;;;;;14.20;81.70;;;;;;5074035;28;20311;-89
2022/05/09 04:18:52;;;;;;;;;;;14.30;81.40;;;;;;5073725;28;19931;-90
2022/05/09 04:21:17;;;;;;;;;;;14.20;81.50;;;;;;5073457;28;19971;-90
2022/05/09 04:23:43;;;;;;;;;;;14.20;81.40;;;;;;5073560;28;19944;-90
2022/05/09 04:26:12;;;;;;;;;;;14.20;81.30;;;;;;5072987;28;20492;-90
2022/05/09 04:28:38;;;;;;;;;;;14.10;81.40;;;;;;5073529;28;19981;-90
2022/05/09 04:31:03;;;;;;;;;;;14.10;81.70;;;;;;5073504;28;19935;-91
2022/05/09 04:33:29;;;;;;;;;;;14.20;82.40;;;;;;5073320;28;20016;-90
2022/05/09 04:35:55;;;;;;;;;;;14.20;82.20;;;;;;5073484;28;19954;-90
2022/05/09 04:38:22;;;;;;;;;;;14.20;83.30;;;;;;5073407;28;19957;-90
2022/05/09 04:40:51;;;;;;;;;;;14.20;84.00;;;;;;5073160;28;19946;-90
2022/05/09 04:43:24;;;;;;;;;;;14.10;84.30;;;;;;5073423;28;19997;-90
2022/05/09 04:45:50;;;;;;;;;;;14.00;84.60;;;;;;5073378;28;20094;-90
2022/05/09 04:48:16;;;;;;;;;;;14.00;84.80;;;;;;5073144;28;20400;-90
2022/05/09 04:50:42;;;;;;;;;;;14.00;85.10;;;;;;5073388;28;19953;-91
2022/05/09 04:53:08;;;;;;;;;;;14.10;85.10;;;;;;5073319;28;19949;-90
2022/05/09 04:55:33;;;;;;;;;;;14.10;84.80;;;;;;5071751;28;20369;-90
2022/05/09 04:57:59;;;;;;;;;;;14.10;84.90;;;;;;5072737;28;20383;-91
2022/05/09 05:00:26;;;;;;;;;;;14.20;85.10;;;;;;5073045;28;20044;-90
2022/05/09 05:02:55;;;;;;;;;;;14.20;85.40;;;;;;5072907;28;19950;-90
2022/05/09 05:05:22;;;;;;;;;;;14.10;85.60;;;;;;5072759;28;19940;-91
2022/05/09 05:07:48;;;;;;;;;;;14.10;85.80;;;;;;5081031;28;19935;-90
2022/05/09 05:10:14;;;;;;;;;;;14.00;86.40;;;;;;5077225;28;19954;-91
2022/05/09 05:12:40;;;;;;;;;;;14.00;86.60;;;;;;5072304;28;19966;-90
2022/05/09 05:15:06;;;;;;;;;;;14.10;86.80;;;;;;5072402;28;20014;-90
2022/05/09 05:17:33;;;;;;;;;;;14.20;86.60;;;;;;5072625;28;19957;-90
2022/05/09 05:19:59;;;;;;;;;;;14.30;86.10;;;;;;5072506;28;19953;-91
2022/05/09 05:22:25;;;;;;;;;;;14.40;85.00;;;;;;5072782;28;20057;-90
2022/05/09 05:24:53;;;;;;;;;;;14.60;84.10;;;;;;5072559;28;19965;-90
2022/05/09 05:27:21;;;;;;;;;;;14.70;83.60;;;;;;5072629;28;19960;-90
2022/05/09 05:29:47;;;;;;;;;;;15.00;83.00;;;;;;5070006;28;20412;-90
2022/05/09 05:32:31;;;;;;;;;;;15.30;82.00;;;;;;5070177;28;19956;-90
2022/05/09 05:34:56;;;;;;;;;;;15.50;81.40;;;;;;5069125;28;19969;-90
2022/05/09 05:37:22;;;;;;;;;;;15.70;81.00;;;;;;5071514;28;19967;-90
2022/05/09 05:39:48;;;;;;;;;;;15.70;80.70;;;;;;5071530;28;19959;-90
2022/05/09 05:42:17;;;;;;;;;;;15.80;80.30;;;;;;5070179;28;19952;-91
2022/05/09 05:44:43;;;;;;;;;;;15.80;79.70;;;;;;5067823;28;20412;-90
2022/05/09 05:47:10;;;;;;;;;;;15.90;79.60;;;;;;5070849;28;19950;-90
2022/05/09 05:49:36;;;;;;;;;;;16.00;79.10;;;;;;5087114;28;19984;-90
2022/05/09 05:52:03;;;;;;;;;;;16.10;78.60;;;;;;5080245;28;19961;-90
2022/05/09 05:54:34;;;;;;;;;;;16.10;78.40;;;;;;5073790;28;19951;-90
2022/05/09 05:57:00;;;;;;;;;;;16.20;78.10;;;;;;5070568;28;20412;-90
2022/05/09 05:59:26;;;;;;;;;;;16.30;78.10;;;;;;5078668;28;19946;-90
2022/05/09 06:01:52;;;;;;;;;;;16.40;78.10;;;;;;5068181;28;19963;-90
2022/05/09 06:04:19;;;;;;;;;;;16.50;77.40;;;;;;5069368;28;19946;-90
2022/05/09 06:06:44;;;;;;;;;;;16.60;77.30;;;;;;5071624;28;19939;-91
2022/05/09 06:09:11;;;;;;;;;;;16.70;77.20;;;;;;5074311;28;20293;-90
2022/05/09 06:11:37;;;;;;;;;;;16.80;77.00;;;;;;5069923;28;19989;-90
2022/05/09 06:14:05;;;;;;;;;;;16.90;75.90;;;;;;5073245;28;20276;-90
2022/05/09 06:16:30;;;;;;;;;;;17.00;74.90;;;;;;5068634;28;19951;-90
2022/05/09 06:18:56;;;;;;;;;;;17.10;75.50;;;;;;5073546;28;19947;-90
2022/05/09 06:21:22;;;;;;;;;;;17.20;75.10;;;;;;5073502;28;19975;-90
2022/05/09 06:23:49;;;;;;;;;;;17.30;75.10;;;;;;5073413;28;19935;-90
2022/05/09 06:26:14;;;;;;;;;;;17.30;74.00;;;;;;5077841;28;20413;-90
2022/05/09 06:28:43;;;;;;;;;;;17.40;74.40;;;;;;5079564;28;19923;-90
2022/05/09 06:31:08;;;;;;;;;;;17.60;73.80;;;;;;5074443;28;19938;-90
2022/05/09 06:33:34;;;;;;;;;;;17.70;72.60;;;;;;5074275;28;20525;-90
2022/05/09 06:36:03;;;;;;;;;;;17.80;72.40;;;;;;5074926;28;20399;-90
2022/05/09 06:38:29;;;;;;;;;;;17.80;72.70;;;;;;5074457;28;20452;-90
2022/05/09 06:40:55;;;;;;;;;;;17.90;72.10;;;;;;5074595;28;20042;-91
2022/05/09 06:43:22;;;;;;;;;;;18.00;70.90;;;;;;5071264;28;20000;-90
2022/05/09 06:45:50;;;;;;;;;;;18.10;70.60;;;;;;5071856;28;19999;-90
2022/05/09 06:48:16;;;;;;;;;;;18.20;71.10;;;;;;5073936;28;19934;-91
2022/05/09 06:50:42;;;;;;;;;;;18.30;69.50;;;;;;5074340;28;19923;-90
2022/05/09 06:53:08;;;;;;;;;;;18.30;69.40;;;;;;5073709;28;19908;-91
2022/05/09 06:55:34;;;;;;;;;;;18.40;69.10;;;;;;5074844;28;19937;-90
2022/05/09 06:57:59;;;;;;;;;;;18.50;68.90;;;;;;5073973;28;20337;-90
2022/05/09 07:00:25;;;;;;;;;;;18.60;67.90;;;;;;5074503;28;20019;-90
2022/05/09 07:02:51;;;;;;;;;;;18.60;66.00;;;;;;5073331;28;19921;-90
2022/05/09 07:05:18;;;;;;;;;;;18.80;66.10;;;;;;5073966;28;20374;-91
2022/05/09 07:07:44;;;;;;;;;;;18.80;65.80;;;;;;5071198;28;19948;-90
2022/05/09 07:10:10;;;;;;;;;;;18.90;66.60;;;;;;5073295;28;19916;-90
2022/05/09 07:12:43;;;;;;;;;;;19.00;65.30;;;;;;5074115;28;19912;-90
2022/05/09 07:15:10;;;;;;;;;;;19.20;64.80;;;;;;5071240;28;19997;-90
2022/05/09 07:17:35;;;;;;;;;;;19.20;63.20;;;;;;5072572;28;19912;-90
2022/05/09 07:20:01;;;;;;;;;;;19.30;63.00;;;;;;5066483;28;19920;-90
2022/05/09 07:22:26;;;;;;;;;;;19.30;62.90;;;;;;5072584;28;19949;-90
2022/05/09 07:24:52;;;;;;;;;;;19.50;62.50;;;;;;5073526;28;20358;-90
2022/05/09 07:27:18;;;;;;;;;;;19.60;62.70;;;;;;5069901;28;20479;-90
2022/05/09 07:29:43;;;;;;;;;;;19.70;61.90;;;;;;5069053;28;20353;-90
2022/05/09 07:32:09;;;;;;;;;;;19.80;62.70;;;;;;5072777;28;20471;-90
2022/05/09 07:34:34;;;;;;;;;;;19.90;59.60;;;;;;5073542;28;19938;-90
2022/05/09 07:37:00;;;;;;;;;;;20.00;60.70;;;;;;5072474;28;19923;-90
2022/05/09 07:39:26;;;;;;;;;;;20.20;60.80;;;;;;5067225;28;19913;-90
2022/05/09 07:41:51;;;;;;;;;;;20.30;59.20;;;;;;5071538;28;19916;-90
2022/05/09 07:44:17;;;;;;;;;;;20.30;61.20;;;;;;5072845;28;19957;-90
2022/05/09 07:46:42;;;;;;;;;;;20.30;60.60;;;;;;5070540;28;19939;-90
2022/05/09 07:49:08;;;;;;;;;;;20.40;60.40;;;;;;5070405;28;20294;-91
2022/05/09 07:51:37;;;;;;;;;;;20.40;58.50;;;;;;5065259;28;19928;-91
2022/05/09 07:54:03;;;;;;;;;;;20.50;60.40;;;;;;5068700;28;19912;-90
2022/05/09 07:56:28;;;;;;;;;;;20.60;60.40;;;;;;5073939;28;20007;-91
2022/05/09 07:58:54;;;;;;;;;;;20.70;62.10;;;;;;5072564;28;20453;-91
2022/05/09 08:01:19;;;;;;;;;;;20.80;59.50;;;;;;5067322;28;19920;-91
2022/05/09 08:03:45;;;;;;;;;;;20.80;57.50;;;;;;5067854;28;19913;-91
2022/05/09 08:06:10;;;;;;;;;;;20.90;56.70;;;;;;5069489;28;19920;-91
2022/05/09 08:08:36;;;;;;;;;;;20.90;56.90;;;;;;5085923;28;19938;-91
2022/05/09 08:11:02;;;;;;;;;;;21.00;57.20;;;;;;5067589;28;20008;-91
2022/05/09 08:13:30;;;;;;;;;;;21.10;61.20;;;;;;5072738;28;19916;-91
2022/05/09 08:15:56;;;;;;;;;;;21.20;59.40;;;;;;5071029;28;19948;-91
2022/05/09 08:18:24;;;;;;;;;;;21.20;59.30;;;;;;5071031;28;19913;-91
2022/05/09 08:20:50;;;;;;;;;;;21.30;59.30;;;;;;5072040;28;19917;-91
2022/05/09 08:23:18;;;;;;;;;;;21.30;57.80;;;;;;5072778;28;20369;-91
2022/05/09 08:25:45;;;;;;;;;;;21.50;59.10;;;;;;5067861;28;19913;-91
2022/05/09 08:28:10;;;;;;;;;;;21.50;61.00;;;;;;5071131;28;19957;-91
2022/05/09 08:30:36;;;;;;;;;;;21.60;59.40;;;;;;5070206;28;19912;-91
2022/05/09 08:33:03;;;;;;;;;;;21.70;56.00;;;;;;5068914;28;19913;-91
2022/05/09 08:35:29;;;;;;;;;;;21.70;56.80;;;;;;5070791;28;19942;-91
2022/05/09 08:37:55;;;;;;;;;;;21.80;58.20;;;;;;5070098;28;19977;-91
2022/05/09 08:40:27;;;;;;;;;;;21.90;59.60;;;;;;5071846;28;19916;-91
2022/05/09 08:43:01;;;;;;;;;;;21.90;54.70;;;;;;5070888;28;19943;-91
2022/05/09 08:45:33;;;;;;;;;;;22.00;56.80;;;;;;5071912;28;20011;-91
2022/05/09 08:50:29;;;;;;;;;;;22.20;57.00;;;;;;5056340;22;19929;-91
2022/05/09 08:52:57;;;;;;;;;;;22.30;57.60;;;;;;5051657;28;19935;-91
2022/05/09 08:55:36;;;;;;;;;;;22.30;53.20;;;;;;5051116;28;19958;-91
2022/05/09 08:58:19;;;;;;;;;;;22.30;52.40;;;;;;5038877;28;19913;-91
2022/05/09 09:00:47;;;;;;;;;;;22.40;53.40;;;;;;5047563;28;19953;-91
2022/05/09 09:03:24;;;;;;;;;;;22.40;53.60;;;;;;5052289;28;20030;-91
2022/05/09 09:05:50;;;;;;;;;;;22.50;54.00;;;;;;5050896;28;20535;-91
2022/05/09 09:08:15;;;;;;;;;;;22.60;54.40;;;;;;5052548;28;19912;-91
2022/05/09 09:10:48;;;;;;;;;;;22.60;53.40;;;;;;5053046;28;19924;-91
2022/05/09 09:13:19;;;;;;;;;;;22.70;54.90;;;;;;5056004;28;20305;-91
2022/05/09 09:16:05;;;;;;;;;;;22.70;53.30;;;;;;5061223;28;19965;-90
2022/05/09 09:18:31;;;;;;;;;;;22.80;51.00;;;;;;5053150;28;19975;-91
2022/05/09 09:20:57;;;;;;;;;;;22.80;53.00;;;;;;5061697;28;20404;-91
2022/05/09 09:23:35;;;;;;;;;;;22.80;52.40;;;;;;5050009;28;20074;-91
2022/05/09 09:26:04;;;;;;;;;;;22.90;52.80;;;;;;5054040;28;20298;-91
2022/05/09 09:28:32;;;;;;;;;;;23.00;53.30;;;;;;5033076;28;19917;-91
2022/05/09 09:30:58;;;;;;;;;;;23.10;55.20;;;;;;5049471;28;19947;-91
2022/05/09 09:33:24;;;;;;;;;;;23.20;55.70;;;;;;5051622;28;19913;-91
2022/05/09 09:36:08;;;;;;;;;;;23.20;54.40;;;;;;5057441;28;19916;-91
2022/05/09 09:38:34;;;;;;;;;;;23.30;53.50;;;;;;5051879;28;20433;-91
2022/05/09 09:41:18;;;;;;;;;;;23.30;54.80;;;;;;5047759;28;19925;-91
2022/05/09 09:43:44;;;;;;;;;;;23.40;50.30;;;;;;5053166;28;19913;-91
2022/05/09 09:46:10;;;;;;;;;;;23.50;49.00;;;;;;5050356;28;20003;-91
2022/05/09 09:48:35;;;;;;;;;;;23.50;48.70;;;;;;5050928;28;20051;-91
2022/05/09 09:51:05;;;;;;;;;;;23.60;49.40;;;;;;5051554;28;19913;-91
2022/05/09 09:53:34;;;;;;;;;;;23.50;47.20;;;;;;5053446;28;19935;-91
2022/05/09 09:56:02;;;;;;;;;;;23.60;48.30;;;;;;5051686;28;20233;-91
2022/05/09 09:58:29;;;;;;;;;;;23.60;46.60;;;;;;5052976;28;19921;-91
2022/05/09 10:01:03;;;;;;;;;;;23.60;49.10;;;;;;5052486;28;19925;-91
2022/05/09 10:03:29;;;;;;;;;;;23.70;49.80;;;;;;5049619;28;20429;-91
2022/05/09 10:05:56;;;;;;;;;;;23.80;53.80;;;;;;5052186;28;19971;-91
2022/05/09 10:08:24;;;;;;;;;;;23.90;49.70;;;;;;5050520;28;19913;-91
2022/05/09 10:10:54;;;;;;;;;;;24.00;48.60;;;;;;5055945;28;19913;-91
2022/05/09 10:13:21;;;;;;;;;;;24.10;48.80;;;;;;5056144;28;19974;-90
2022/05/09 10:16:00;;;;;;;;;;;24.10;46.50;;;;;;5056118;28;20301;-91
2022/05/09 10:18:30;;;;;;;;;;;24.10;48.00;;;;;;5055860;28;19909;-91
2022/05/09 10:20:55;;;;;;;;;;;24.20;50.90;;;;;;5055818;28;19963;-90
2022/05/09 10:26:21;;;;;;;;;;;24.30;51.80;;;;;;5036274;28;19936;-91
2022/05/09 10:28:54;;;;;;;;;;;24.30;46.40;;;;;;5035783;28;19913;-91
2022/05/09 10:31:22;;;;;;;;;;;24.20;46.10;;;;;;5035690;28;19948;-91
2022/05/09 10:33:50;;;;;;;;;;;24.40;51.40;;;;;;5055412;28;20317;-91
2022/05/09 10:36:22;;;;;;;;;;;24.60;52.50;;;;;;5055725;28;19916;-91
2022/05/09 10:38:51;;;;;;;;;;;24.70;49.50;;;;;;5035654;28;20374;-91
2022/05/09 10:41:32;;;;;;;;;;;24.90;48.70;;;;;;5054289;28;19940;-91
2022/05/09 10:44:00;;;;;;;;;;;25.00;46.60;;;;;;5055420;28;19913;-91
2022/05/09 10:46:35;;;;;;;;;;;25.10;49.30;;;;;;5055204;28;19999;-91
2022/05/09 10:49:03;;;;;;;;;;;25.20;49.30;;;;;;5053853;28;19924;-91
2022/05/09 10:51:32;;;;;;;;;;;25.30;47.50;;;;;;5055351;28;19924;-91
2022/05/09 10:54:01;;;;;;;;;;;25.40;46.30;;;;;;5054008;28;19909;-91
2022/05/09 10:56:26;;;;;;;;;;;25.50;44.80;;;;;;5055597;28;19928;-91
2022/05/09 10:59:01;;;;;;;;;;;25.70;45.90;;;;;;5055274;28;20051;-91
2022/05/09 11:01:44;;;;;;;;;;;25.80;46.50;;;;;;5054872;28;19971;-91
2022/05/09 11:04:10;;;;;;;;;;;26.00;46.80;;;;;;5055441;28;19913;-91
2022/05/09 11:06:49;;;;;;;;;;;26.20;45.60;;;;;;5055044;28;20423;-91
2022/05/09 11:09:17;;;;;;;;;;;26.20;47.80;;;;;;5035185;28;19920;-91
2022/05/09 11:11:54;;;;;;;;;;;26.20;48.30;;;;;;5035025;28;19916;-91
2022/05/09 11:14:23;;;;;;;;;;;26.30;45.00;;;;;;5035120;28;20393;-91
2022/05/09 11:16:55;;;;;;;;;;;26.50;41.20;;;;;;5035079;28;19952;-91
2022/05/09 11:19:38;;;;;;;;;;;26.60;43.90;;;;;;5034830;28;19914;-91
2022/05/09 11:22:16;;;;;;;;;;;26.60;44.00;;;;;;5035129;28;20413;-91
2022/05/09 11:24:54;;;;;;;;;;;26.70;46.20;;;;;;5054674;28;19909;-91
2022/05/09 11:27:26;;;;;;;;;;;26.80;45.30;;;;;;5054800;28;19920;-91
2022/05/09 11:29:57;;;;;;;;;;;26.90;45.90;;;;;;5054382;28;20273;-91
2022/05/09 11:32:42;;;;;;;;;;;27.10;47.00;;;;;;5050464;28;19912;-91
2022/05/09 11:35:26;;;;;;;;;;;27.30;45.30;;;;;;5048443;28;19932;-91
2022/05/09 11:38:12;;;;;;;;;;;27.40;45.50;;;;;;5052425;28;20313;-91
2022/05/09 11:40:49;;;;;;;;;;;27.30;44.50;;;;;;5042357;28;19916;-91
2022/05/09 11:43:34;;;;;;;;;;;27.20;46.00;;;;;;5053699;28;19913;-91
2022/05/09 11:46:13;;;;;;;;;;;27.60;41.50;;;;;;5055426;28;19913;-91
2022/05/09 11:48:42;;;;;;;;;;;27.80;41.10;;;;;;5053215;28;19943;-91
2022/05/09 11:51:14;;;;;;;;;;;28.10;41.90;;;;;;5053540;28;19913;-91
2022/05/09 11:53:41;;;;;;;;;;;28.20;40.50;;;;;;5053664;28;19916;-92
2022/05/09 11:56:07;;;;;;;;;;;28.40;43.10;;;;;;5043769;28;19967;-91
2022/05/09 11:58:35;;;;;;;;;;;28.50;41.50;;;;;;5053993;28;20020;-91
2022/05/09 12:01:01;;;;;;;;;;;28.70;44.30;;;;;;5050565;28;19932;-91
2022/05/09 12:03:39;;;;;;;;;;;28.80;40.50;;;;;;5053788;28;19913;-91
2022/05/09 12:06:05;;;;;;;;;;;29.30;37.90;;;;;;5059008;28;19912;-92
2022/05/09 12:08:41;;;;;;;;;;;29.80;39.60;;;;;;5056188;28;19975;-91
2022/05/09 12:11:25;;;;;;;;;;;30.20;37.40;;;;;;5052501;28;19952;-92
2022/05/09 12:13:55;;;;;;;;;;;30.70;37.40;;;;;;5062609;28;19923;-91
2022/05/09 12:16:35;;;;;;;;;;;30.50;40.40;;;;;;5060479;28;19917;-92
2022/05/09 12:19:03;;;;;;;;;;;30.50;39.50;;;;;;5052954;28;19913;-92
2022/05/09 12:21:34;;;;;;;;;;;30.70;38.00;;;;;;5053280;28;19924;-91
2022/05/09 12:24:26;;;;;;;;;;;31.10;36.00;;;;;;5056673;28;19921;-92
2022/05/09 12:26:53;;;;;;;;;;;31.10;37.30;;;;;;5043660;28;19943;-91
2022/05/09 12:29:19;;;;;;;;;;;31.10;36.90;;;;;;5052657;28;19917;-92
2022/05/09 12:31:46;;;;;;;;;;;31.50;33.10;;;;;;5067379;28;19912;-92
2022/05/09 12:34:13;;;;;;;;;;;31.70;32.30;;;;;;5073507;28;19909;-92
2022/05/09 12:36:38;;;;;;;;;;;31.70;32.80;;;;;;5053992;28;19912;-91
2022/05/09 12:39:07;;;;;;;;;;;31.90;32.40;;;;;;5047887;28;20320;-92
2022/05/09 12:41:52;;;;;;;;;;;31.80;34.70;;;;;;5047545;28;20389;-92
2022/05/09 12:44:17;;;;;;;;;;;31.90;34.40;;;;;;5049370;28;20267;-92
2022/05/09 12:46:50;;;;;;;;;;;32.60;31.70;;;;;;5047721;28;19958;-91
2022/05/09 12:49:18;;;;;;;;;;;32.50;31.40;;;;;;5049481;28;19927;-92
2022/05/09 12:51:46;;;;;;;;;;;32.80;31.30;;;;;;5051167;28;19975;-92
2022/05/09 12:54:13;;;;;;;;;;;32.90;33.70;;;;;;5051785;28;19921;-91
2022/05/09 12:56:45;;;;;;;;;;;32.80;34.60;;;;;;5051824;28;19966;-91
2022/05/09 12:59:11;;;;;;;;;;;32.70;34.50;;;;;;5050183;28;19935;-92
2022/05/09 13:01:58;;;;;;;;;;;32.90;34.30;;;;;;5051068;28;20378;-92
2022/05/09 13:04:26;;;;;;;;;;;33.30;34.20;;;;;;5049402;28;19913;-92
2022/05/09 13:06:53;;;;;;;;;;;32.50;32.30;;;;;;5049540;28;19921;-91
2022/05/09 13:09:21;;;;;;;;;;;32.00;33.70;;;;;;5052146;28;19946;-92
2022/05/09 13:12:06;;;;;;;;;;;31.30;34.90;;;;;;5050325;28;19943;-92
2022/05/09 13:14:39;;;;;;;;;;;31.30;35.80;;;;;;5051125;28;19921;-92
2022/05/09 13:17:11;;;;;;;;;;;32.10;34.30;;;;;;5053412;28;20341;-92
2022/05/09 13:19:36;;;;;;;;;;;32.00;34.60;;;;;;5048217;28;20339;-92
2022/05/09 13:22:04;;;;;;;;;;;31.30;35.50;;;;;;5057194;28;19916;-92
2022/05/09 13:24:31;;;;;;;;;;;31.30;37.20;;;;;;5052904;28;19913;-92
2022/05/09 13:27:01;;;;;;;;;;;32.20;36.70;;;;;;5057828;28;19912;-92
2022/05/09 13:29:29;;;;;;;;;;;32.90;35.50;;;;;;5059791;28;19948;-92
2022/05/09 13:31:56;;;;;;;;;;;33.70;34.40;;;;;;5056793;28;19966;-92
2022/05/09 13:34:23;;;;;;;;;;;34.10;34.10;;;;;;5054019;28;20224;-92
2022/05/09 13:36:52;;;;;;;;;;;34.90;30.90;;;;;;5056641;28;19909;-92
2022/05/09 13:39:29;;;;;;;;;;;35.90;29.80;;;;;;5055397;28;19913;-92
2022/05/09 13:41:55;;;;;;;;;;;36.20;30.90;;;;;;5052825;28;19927;-92
2022/05/09 13:44:21;;;;;;;;;;;36.20;29.70;;;;;;5053848;28;19923;-92
2022/05/09 13:46:47;;;;;;;;;;;35.50;30.00;;;;;;5051162;28;19913;-92
2022/05/09 13:49:15;;;;;;;;;;;35.40;30.70;;;;;;5052614;28;20007;-92
2022/05/09 13:51:42;;;;;;;;;;;35.90;31.80;;;;;;5054810;28;20268;-92
2022/05/09 13:54:09;;;;;;;;;;;36.20;28.70;;;;;;5054373;28;19920;-92
2022/05/09 13:56:36;;;;;;;;;;;36.70;29.00;;;;;;5054557;28;19917;-92
2022/05/09 13:59:06;;;;;;;;;;;37.40;26.60;;;;;;5054685;28;19920;-92
2022/05/09 14:01:57;;;;;;;;;;;37.60;27.30;;;;;;5052919;28;19928;-92
2022/05/09 14:04:23;;;;;;;;;;;37.60;26.60;;;;;;5051724;28;20384;-92
2022/05/09 14:06:49;;;;;;;;;;;36.70;28.30;;;;;;5053063;28;20003;-92
2022/05/09 14:09:25;;;;;;;;;;;36.00;30.20;;;;;;5053050;28;20277;-92
2022/05/09 14:11:54;;;;;;;;;;;35.80;29.60;;;;;;5053375;28;19917;-92
2022/05/09 14:14:51;;;;;;;;;;;35.00;32.30;;;;;;5049685;28;20385;-92
2022/05/09 14:17:25;;;;;;;;;;;34.90;30.60;;;;;;5044118;28;19917;-92
2022/05/09 14:19:54;;;;;;;;;;;35.10;31.90;;;;;;5053063;28;19974;-92
2022/05/09 14:22:21;;;;;;;;;;;35.10;32.30;;;;;;5058276;28;19923;-92
2022/05/09 14:30:18;;;;;;;;;;;36.30;28.90;;;;;;5051545;28;19920;-92
2022/05/09 14:32:44;;;;;;;;;;;36.90;27.70;;;;;;5053784;28;19913;-92
2022/05/09 14:35:11;;;;;;;;;;;37.30;28.00;;;;;;5053590;28;19913;-92
2022/05/09 14:37:48;;;;;;;;;;;37.10;26.00;;;;;;5058688;28;20055;-92
2022/05/09 14:40:19;;;;;;;;;;;37.10;26.20;;;;;;5056087;28;19955;-92
2022/05/09 14:42:52;;;;;;;;;;;37.30;26.00;;;;;;5058784;28;19913;-92